Time;durP1;ratioP1;P1;durP2;ratioP2;P2;SDS_P1;SDS_P2;PMS_P1;PMS_P2;Temp;Humidity;BMP_temperature;BMP_pressure;BME280_temperature;BME280_humidity;BME280_pressure;Samples;Min_cycle;Max_cycle;Signal;HPM_P1;HPM_P2
2022/07/23 00:02:21;;;;;;;5.63;2.67;;;;;;;14.38;100.00;101188.63;5026580;28;20042;-74
2022/07/23 00:04:47;;;;;;;10.60;1.37;;;;;;;14.46;100.00;101200.13;5026636;28;20041;-74
2022/07/23 00:07:12;;;;;;;3.83;1.57;;;;;;;14.45;100.00;101217.28;5026581;28;20037;-74
2022/07/23 00:09:37;;;;;;;4.17;1.37;;;;;;;14.46;100.00;101212.72;5026231;28;20029;-74
2022/07/23 00:12:03;;;;;;;3.40;1.40;;;;;;;14.42;100.00;101201.53;5024964;28;20057;-74
2022/07/23 00:14:29;;;;;;;4.25;1.02;;;;;;;14.43;100.00;101194.28;5022009;28;20112;-74
2022/07/23 00:16:54;;;;;;;3.53;1.07;;;;;;;14.44;100.00;101199.47;5026446;28;20029;-74
2022/07/23 00:19:20;;;;;;;2.83;1.20;;;;;;;14.44;100.00;101204.00;5008529;28;20561;-74
2022/07/23 00:21:45;;;;;;;4.20;1.20;;;;;;;14.46;100.00;101197.44;5026021;28;20576;-74
2022/07/23 00:24:10;;;;;;;2.90;1.07;;;;;;;14.52;100.00;101206.66;5024926;28;20044;-74
2022/07/23 00:26:36;;;;;;;5.70;1.50;;;;;;;14.46;100.00;101205.50;5026405;28;20143;-74
2022/07/23 00:29:01;;;;;;;8.13;2.80;;;;;;;14.56;100.00;101221.44;5025937;28;20584;-74
2022/07/23 00:31:27;;;;;;;4.97;1.37;;;;;;;14.48;100.00;101213.41;5024666;28;20051;-74
2022/07/23 00:33:56;;;;;;;4.70;1.27;;;;;;;14.42;100.00;101217.63;5024657;28;20025;-74
2022/07/23 00:36:24;;;;;;;3.83;1.23;;;;;;;14.49;100.00;101223.13;5008349;28;20083;-74
2022/07/23 00:38:50;;;;;;;3.13;1.20;;;;;;;14.43;100.00;101205.03;5024495;28;20038;-74
2022/07/23 00:41:15;;;;;;;6.07;1.50;;;;;;;14.34;100.00;101205.06;5019234;28;20024;-74
2022/07/23 00:43:41;;;;;;;4.40;1.42;;;;;;;14.41;100.00;101215.13;5024282;28;20073;-74
2022/07/23 00:46:06;;;;;;;6.57;1.63;;;;;;;14.36;100.00;101211.09;5024599;28;20079;-75
2022/07/23 00:48:32;;;;;;;4.40;2.23;;;;;;;14.41;100.00;101205.19;5025679;28;20041;-74
2022/07/23 00:50:57;;;;;;;4.10;1.03;;;;;;;14.43;100.00;101205.03;5007733;28;20094;-74
2022/07/23 00:53:24;;;;;;;4.43;1.33;;;;;;;14.36;100.00;101197.66;5007549;28;20123;-74
2022/07/23 00:55:49;;;;;;;6.18;1.40;;;;;;;14.26;100.00;101178.28;5024348;28;20171;-74
2022/07/23 00:58:16;;;;;;;5.53;1.53;;;;;;;14.35;100.00;101189.78;5024289;28;20084;-74
2022/07/23 01:00:42;;;;;;;9.05;1.50;;;;;;;14.40;100.00;101202.69;5024007;28;20495;-74
2022/07/23 01:03:07;;;;;;;5.57;1.40;;;;;;;14.31;100.00;101197.38;5023960;28;20044;-75
2022/07/23 01:05:33;;;;;;;2.72;1.50;;;;;;;14.35;100.00;101200.53;5024202;28;20021;-74
2022/07/23 01:07:59;;;;;;;4.53;1.30;;;;;;;14.41;100.00;101212.44;5024097;28;20387;-75
2022/07/23 01:10:31;;;;;;;3.90;1.35;;;;;;;14.38;100.00;101204.72;5023972;28;20035;-74
2022/07/23 01:12:57;;;;;;;7.38;1.60;;;;;;;14.27;100.00;101196.03;5023662;28;20120;-74
2022/07/23 01:15:22;;;;;;;;;;;;;;;14.36;100.00;101215.66;5024483;28;20027;-74
2022/07/23 01:17:48;;;;;;;5.07;1.92;;;;;;;14.32;100.00;101203.56;5025319;28;19999;-74
2022/07/23 01:20:13;;;;;;;3.43;1.50;;;;;;;14.24;100.00;101192.88;5007273;28;20021;-75
2022/07/23 01:22:39;;;;;;;4.77;1.40;;;;;;;14.15;100.00;101200.97;5023716;28;20053;-75
2022/07/23 01:25:05;;;;;;;4.97;1.37;;;;;;;14.04;100.00;101187.09;5025007;28;20087;-74
2022/07/23 01:27:31;;;;;;;;;;;;;;;14.06;100.00;101187.75;5024479;28;20524;-74
2022/07/23 01:30:02;;;;;;;7.90;2.60;;;;;;;14.06;100.00;101185.06;5023671;28;19920;-74
2022/07/23 01:32:27;;;;;;;5.32;1.65;;;;;;;14.03;100.00;101191.63;5023081;28;20037;-75
2022/07/23 01:34:53;;;;;;;7.10;1.75;;;;;;;14.13;100.00;101196.78;5023827;28;20031;-74
2022/07/23 01:37:19;;;;;;;8.75;2.17;;;;;;;14.05;100.00;101194.97;5023406;28;20070;-74
2022/07/23 01:39:45;;;;;;;;;;;;;;;13.98;100.00;101174.34;5001742;28;20079;-75
2022/07/23 01:42:11;;;;;;;;;;;;;;;13.96;100.00;101169.19;5023901;28;19917;-75
2022/07/23 01:44:36;;;;;;;3.63;1.47;;;;;;;13.89;100.00;101179.78;5024881;28;20485;-74
2022/07/23 01:47:02;;;;;;;6.40;1.42;;;;;;;13.97;100.00;101191.47;5023672;28;20524;-74
2022/07/23 01:49:28;;;;;;;8.77;2.17;;;;;;;13.89;100.00;101193.19;5023511;28;20022;-74
2022/07/23 01:52:23;;;;;;;3.08;1.38;;;;;;;13.86;100.00;101195.38;5011182;28;20143;-74
2022/07/23 01:54:49;;;;;;;4.10;1.52;;;;;;;13.89;100.00;101187.81;5021185;28;20118;-74
2022/07/23 01:57:16;;;;;;;4.65;1.65;;;;;;;13.89;100.00;101187.81;5023420;28;20029;-74
2022/07/23 01:59:41;;;;;;;4.93;1.70;;;;;;;13.85;100.00;101194.53;5023306;28;20037;-75
2022/07/23 02:02:08;;;;;;;2.72;1.77;;;;;;;13.87;100.00;101194.38;5023092;28;20139;-74
2022/07/23 02:04:36;;;;;;;5.37;1.73;;;;;;;13.93;100.00;101205.25;5024616;28;20040;-74
2022/07/23 02:07:04;;;;;;;5.80;1.70;;;;;;;13.81;100.00;101187.84;5023694;28;20033;-74
2022/07/23 02:09:30;;;;;;;4.32;1.67;;;;;;;13.82;100.00;101183.34;5020503;28;20386;-74
2022/07/23 02:11:56;;;;;;;4.50;2.17;;;;;;;13.72;100.00;101184.38;5023122;28;20025;-75
2022/07/23 02:14:21;;;;;;;4.35;2.10;;;;;;;13.78;100.00;101187.34;5006767;28;20671;-74
2022/07/23 02:16:47;;;;;;;4.50;2.30;;;;;;;13.73;100.00;101186.03;5023725;28;20029;-74
2022/07/23 02:19:14;;;;;;;5.30;2.35;;;;;;;13.63;100.00;101200.66;5007145;28;20517;-74
2022/07/23 02:21:39;;;;;;;2.63;1.75;;;;;;;13.77;100.00;101202.63;5023085;28;20022;-74
2022/07/23 02:24:05;;;;;;;7.07;2.10;;;;;;;13.66;100.00;101203.00;5023226;28;20049;-74
2022/07/23 02:26:34;;;;;;;6.05;2.17;;;;;;;13.69;100.00;101199.97;5023370;28;20056;-75
2022/07/23 02:29:02;;;;;;;7.03;2.25;;;;;;;13.61;100.00;101187.41;5023144;28;20064;-74
2022/07/23 02:31:29;;;;;;;8.30;2.28;;;;;;;13.58;100.00;101198.50;5022866;28;20029;-74
2022/07/23 02:33:55;;;;;;;6.63;2.47;;;;;;;13.60;100.00;101200.97;5023343;28;20025;-74
2022/07/23 02:36:21;;;;;;;7.77;2.23;;;;;;;13.74;100.00;101202.94;5023302;28;20060;-74
2022/07/23 02:38:47;;;;;;;7.03;2.20;;;;;;;13.66;100.00;101195.78;5023237;28;20112;-74
2022/07/23 02:41:12;;;;;;;6.40;2.37;;;;;;;13.77;100.00;101189.22;5006183;28;20069;-74
2022/07/23 02:43:38;;;;;;;10.13;2.10;;;;;;;13.73;100.00;101179.81;5024622;28;20059;-75
2022/07/23 02:46:04;;;;;;;7.73;2.43;;;;;;;13.77;100.00;101180.34;5026610;28;20069;-75
2022/07/23 02:48:30;;;;;;;4.35;1.60;;;;;;;13.88;100.00;101188.84;5004083;28;20026;-75
2022/07/23 02:50:56;;;;;;;7.18;2.20;;;;;;;13.89;100.00;101162.84;5026432;28;20398;-75
2022/07/23 02:53:26;;;;;;;5.25;1.67;;;;;;;13.87;100.00;101146.91;5026285;28;20072;-74
2022/07/23 02:55:51;;;;;;;6.20;1.90;;;;;;;13.85;100.00;101145.41;5021549;28;21057;-74
2022/07/23 02:58:17;;;;;;;6.03;1.70;;;;;;;13.81;100.00;101134.16;5026384;28;20502;-74
2022/07/23 03:00:43;;;;;;;4.47;1.90;;;;;;;13.82;100.00;101135.03;5026200;28;20288;-75
2022/07/23 03:03:09;;;;;;;3.53;1.35;;;;;;;13.85;100.00;101134.66;5026021;28;20026;-75
2022/07/23 03:05:35;;;;;;;10.53;1.70;;;;;;;13.87;100.00;101120.06;5021058;28;20040;-74
2022/07/23 03:08:01;;;;;;;4.63;1.70;;;;;;;13.77;100.00;101130.19;5027697;28;20124;-74
2022/07/23 03:10:26;;;;;;;5.93;1.42;;;;;;;13.79;100.00;101133.53;5025949;28;20452;-73
2022/07/23 03:12:52;;;;;;;3.40;1.70;;;;;;;13.83;100.00;101142.88;5025901;28;20048;-73
2022/07/23 03:15:17;;;;;;;7.57;1.30;;;;;;;13.90;100.00;101159.97;5009773;28;20029;-73
2022/07/23 03:17:43;;;;;;;2.20;1.42;;;;;;;13.87;100.00;101154.94;5003639;28;20048;-74
2022/07/23 03:20:09;;;;;;;2.33;1.60;;;;;;;13.89;100.00;101152.09;5025961;28;20048;-74
2022/07/23 03:22:34;;;;;;;5.15;2.03;;;;;;;13.91;100.00;101148.22;5025983;28;20021;-73
2022/07/23 03:25:02;;;;;;;10.10;2.83;;;;;;;13.94;100.00;101161.28;5025796;28;20613;-74
2022/07/23 03:27:32;;;;;;;3.70;1.58;;;;;;;13.94;100.00;101166.66;5023315;28;20029;-74
2022/07/23 03:29:59;;;;;;;6.43;1.70;;;;;;;13.92;100.00;101151.75;5027128;28;20400;-74
2022/07/23 03:32:25;;;;;;;7.45;1.42;;;;;;;13.94;100.00;101145.19;5025587;28;20282;-73
2022/07/23 03:34:51;;;;;;;5.35;1.23;;;;;;;13.91;100.00;101133.97;5025950;28;20033;-74
2022/07/23 03:37:18;;;;;;;6.07;1.20;;;;;;;14.04;100.00;101144.13;5025789;28;20582;-74
2022/07/23 03:39:44;;;;;;;5.57;1.38;;;;;;;14.07;100.00;101163.44;5025354;28;20040;-74
2022/07/23 03:42:10;;;;;;;2.30;1.10;;;;;;;14.09;100.00;101149.81;5025342;28;20030;-74
2022/07/23 03:44:38;;;;;;;3.47;1.38;;;;;;;14.01;100.00;101152.56;5003037;28;20434;-74
2022/07/23 03:47:05;;;;;;;2.85;1.30;;;;;;;13.84;100.00;101141.88;5025642;28;20493;-74
2022/07/23 03:49:31;;;;;;;8.55;1.63;;;;;;;13.88;100.00;101155.78;5025198;28;20498;-74
2022/07/23 03:51:57;;;;;;;4.55;2.00;;;;;;;13.82;100.00;101160.00;5025526;28;20028;-75
2022/07/23 03:54:22;;;;;;;5.43;1.40;;;;;;;13.85;100.00;101178.44;5024538;28;20041;-74
2022/07/23 03:56:47;;;;;;;5.17;1.97;;;;;;;13.76;100.00;101173.28;5025474;28;20037;-74
2022/07/23 03:59:13;;;;;;;4.73;1.80;;;;;;;13.85;100.00;101186.50;5025245;28;20103;-73
2022/07/23 04:01:38;;;;;;;6.93;1.63;;;;;;;13.92;100.00;101187.47;5025019;28;20116;-74
2022/07/23 04:04:04;;;;;;;3.33;1.73;;;;;;;13.88;100.00;101190.66;5025301;28;20044;-73
2022/07/23 04:06:30;;;;;;;5.75;2.55;;;;;;;13.97;100.00;101180.75;5006014;28;20014;-74
2022/07/23 04:08:57;;;;;;;5.10;1.60;;;;;;;13.85;100.00;101166.88;5025109;28;20116;-74
2022/07/23 04:11:23;;;;;;;3.72;1.92;;;;;;;13.82;100.00;101162.69;5024511;28;20536;-73
2022/07/23 04:13:48;;;;;;;5.53;2.10;;;;;;;13.85;100.00;101166.88;5008026;28;20052;-74
2022/07/23 04:16:14;;;;;;;6.90;1.93;;;;;;;13.94;100.00;101166.66;5025034;28;20021;-73
2022/07/23 04:18:39;;;;;;;9.70;1.87;;;;;;;13.98;100.00;101160.94;5025131;28;20036;-73
2022/07/23 04:21:11;;;;;;;3.63;1.38;;;;;;;13.87;100.00;101146.91;5024865;28;20401;-73
2022/07/23 04:23:37;;;;;;;7.22;1.65;;;;;;;14.03;100.00;101151.38;5024332;28;20464;-74
2022/07/23 04:26:02;;;;;;;3.90;1.87;;;;;;;14.22;100.00;101141.19;5008492;28;20026;-74
2022/07/23 04:28:28;;;;;;;4.22;1.50;;;;;;;14.31;100.00;101146.34;5024852;28;20021;-74
2022/07/23 04:30:57;;;;;;;6.23;2.00;;;;;;;14.31;100.00;101130.22;5025795;28;20030;-74
2022/07/23 04:33:22;;;;;;;5.32;1.58;;;;;;;14.23;100.00;101116.84;5024486;28;20029;-74
2022/07/23 04:35:50;;;;;;;4.22;1.70;;;;;;;14.33;100.00;101125.50;5024739;28;20013;-74
2022/07/23 04:38:18;;;;;;;3.55;1.67;;;;;;;14.51;100.00;101127.88;5008332;28;20038;-74
2022/07/23 04:40:45;;;;;;;;;;;;;;;14.41;100.00;101118.41;5024782;28;20103;-74
2022/07/23 04:43:10;;;;;;;;;;;;;;;14.52;100.00;101126.06;5014449;28;20370;-74
2022/07/23 04:45:43;;;;;;;4.25;1.58;;;;;;;14.59;100.00;101137.78;5002993;28;19917;-74
2022/07/23 04:48:08;;;;;;;8.40;2.27;;;;;;;14.87;100.00;101139.94;5024344;28;20033;-74
2022/07/23 04:50:34;;;;;;;2.73;1.17;;;;;;;15.23;100.00;101123.13;5005626;28;20021;-74
2022/07/23 04:52:59;;;;;;;2.10;1.00;;;;;;;15.47;100.00;101103.19;5025195;28;20044;-74
2022/07/23 04:55:24;;;;;;;3.23;1.47;;;;;;;15.35;100.00;101070.53;5025227;28;20067;-74
2022/07/23 04:57:51;;;;;;;3.63;1.23;;;;;;;15.29;100.00;101063.19;5024181;28;20026;-74
2022/07/23 05:00:16;;;;;;;4.37;1.00;;;;;;;15.10;100.00;101065.44;5023981;28;20029;-74
2022/07/23 05:02:42;;;;;;;3.13;1.60;;;;;;;15.00;100.00;101078.28;5024556;28;20120;-75
2022/07/23 05:05:09;;;;;;;5.38;1.45;;;;;;;15.00;100.00;101102.50;5023825;28;20025;-74
2022/07/23 05:07:34;;;;;;;4.95;1.80;;;;;;;14.95;100.00;101105.72;5024049;28;20036;-74
2022/07/23 05:10:00;;;;;;;3.67;1.23;;;;;;;14.96;100.00;101111.94;5024291;28;20029;-74
2022/07/23 05:12:26;;;;;;;5.47;1.75;;;;;;;14.89;100.00;101109.16;5023806;28;20029;-74
2022/07/23 05:14:52;;;;;;;3.97;1.50;;;;;;;15.10;100.00;101113.84;5007487;28;20488;-74
2022/07/23 05:17:18;;;;;;;2.70;1.45;;;;;;;15.00;100.00;101097.13;5024295;28;20030;-74
2022/07/23 05:19:44;;;;;;;6.10;1.50;;;;;;;15.09;100.00;101058.38;5023837;28;20382;-74
2022/07/23 05:22:09;;;;;;;3.37;1.10;;;;;;;15.10;100.00;101032.31;5020131;28;20087;-75
2022/07/23 05:24:35;;;;;;;6.03;2.07;;;;;;;15.08;100.00;101031.69;5032396;28;20502;-74
2022/07/23 05:27:02;;;;;;;5.80;1.50;;;;;;;15.36;100.00;101073.03;5018204;28;20141;-74
2022/07/23 05:29:28;;;;;;;1.43;0.80;;;;;;;15.94;100.00;101108.16;5017419;28;20037;-74
2022/07/23 05:31:53;;;;;;;3.53;1.40;;;;;;;15.94;100.00;101030.06;5023565;28;20132;-74
2022/07/23 05:34:19;;;;;;;6.35;1.30;;;;;;;15.73;100.00;101001.28;5007284;28;20365;-74
2022/07/23 05:36:46;;;;;;;2.35;1.30;;;;;;;15.49;100.00;101015.88;5023727;28;20041;-75
2022/07/23 05:39:11;;;;;;;3.43;1.00;;;;;;;15.42;100.00;101079.53;5023822;28;20025;-75
2022/07/23 05:41:37;;;;;;;4.70;1.33;;;;;;;15.61;100.00;101111.22;5022818;28;20029;-75
2022/07/23 05:44:03;;;;;;;4.20;1.25;;;;;;;15.48;100.00;101084.16;5024375;28;20398;-75
2022/07/23 05:46:29;;;;;;;8.98;1.73;;;;;;;15.55;100.00;101085.09;5007248;28;20163;-75
2022/07/23 05:48:59;;;;;;;3.10;1.23;;;;;;;15.59;100.00;101091.78;5007502;28;20479;-75
2022/07/23 05:51:43;;;;;;;6.15;1.50;;;;;;;15.15;100.00;101073.78;5023460;28;20497;-75
2022/07/23 05:54:09;;;;;;;6.23;1.50;;;;;;;15.24;100.00;101114.00;5007008;28;20053;-75
2022/07/23 05:56:37;;;;;;;1.83;1.00;;;;;;;15.09;100.00;101117.53;5005213;28;20268;-75
2022/07/23 05:59:03;;;;;;;7.63;1.80;;;;;;;15.03;100.00;101145.16;5023746;28;20084;-74
2022/07/23 06:01:29;;;;;;;6.40;1.80;;;;;;;15.20;100.00;101173.56;5023631;28;20470;-75
2022/07/23 06:04:01;;;;;;;2.17;1.27;;;;;;;15.22;100.00;101148.31;5023627;28;20057;-75
2022/07/23 06:06:33;;;;;;;4.70;1.48;;;;;;;14.83;100.00;101106.38;5020941;28;20079;-75
2022/07/23 06:08:58;;;;;;;4.80;1.20;;;;;;;15.02;100.00;101159.63;5023459;28;20073;-75
2022/07/23 06:11:24;;;;;;;2.80;1.30;;;;;;;15.00;100.00;101150.88;5006972;28;20536;-75
2022/07/23 06:13:49;;;;;;;4.17;1.20;;;;;;;14.84;100.00;101118.78;5023364;28;20029;-75
2022/07/23 06:16:15;;;;;;;8.87;1.77;;;;;;;14.72;100.00;101115.69;5007098;28;20455;-75
2022/07/23 06:18:40;;;;;;;2.30;0.90;;;;;;;14.86;100.00;101159.75;5026560;28;20060;-75
2022/07/23 06:21:06;;;;;;;6.05;1.42;;;;;;;14.87;100.00;101158.75;5026970;28;20021;-75
2022/07/23 06:23:32;;;;;;;3.58;2.45;;;;;;;14.78;100.00;101158.81;5026884;28;20037;-75
2022/07/23 06:25:57;;;;;;;3.30;1.70;;;;;;;14.85;100.00;101198.41;5027213;28;20083;-75
2022/07/23 06:28:23;;;;;;;2.83;1.27;;;;;;;14.75;100.00;101196.81;5027091;28;20069;-75
2022/07/23 06:30:49;;;;;;;;;;;;;;;14.56;100.00;101198.09;5027224;28;20021;-75
2022/07/23 06:33:14;;;;;;;;;;;;;;;14.64;100.00;101232.13;5028534;28;20096;-75
2022/07/23 06:35:40;;;;;;;2.37;1.10;;;;;;;14.61;100.00;101216.38;5028001;28;19909;-75
2022/07/23 06:38:07;;;;;;;5.22;0.90;;;;;;;14.61;100.00;101216.38;5026824;28;20029;-75
2022/07/23 06:40:32;;;;;;;4.07;1.05;;;;;;;14.73;100.00;101228.38;5026750;28;20095;-75
2022/07/23 06:42:57;;;;;;;1.63;0.83;;;;;;;14.81;100.00;101215.91;5026767;28;20559;-75
2022/07/23 06:45:26;;;;;;;3.00;0.98;;;;;;;14.92;100.00;101218.19;5026662;28;20017;-75
2022/07/23 06:47:51;;;;;;;9.63;1.88;;;;;;;14.79;100.00;101175.75;5021867;28;20044;-74
2022/07/23 06:50:17;;;;;;;3.75;1.30;;;;;;;14.78;100.00;101169.56;5027656;28;20033;-74
2022/07/23 06:52:43;;;;;;;3.43;1.30;;;;;;;14.65;100.00;101158.56;5026380;28;20035;-75
2022/07/23 06:55:09;;;;;;;5.60;1.80;;;;;;;14.72;100.00;101170.25;5025943;28;20032;-75
2022/07/23 06:57:34;;;;;;;4.65;1.30;;;;;;;14.62;100.00;101172.34;5020503;28;20033;-75
2022/07/23 07:00:00;;;;;;;1.53;1.27;;;;;;;14.45;100.00;101179.66;5026473;28;20386;-74
2022/07/23 07:02:25;;;;;;;2.63;1.33;;;;;;;14.67;100.00;101231.78;5026319;28;20261;-74
2022/07/23 07:04:51;;;;;;;4.87;1.30;;;;;;;14.67;100.00;101226.41;5026229;28;20033;-75
2022/07/23 07:07:16;;;;;;;3.57;1.13;;;;;;;14.67;100.00;101198.69;5027805;28;20398;-74
2022/07/23 07:09:42;;;;;;;3.23;1.37;;;;;;;14.84;100.00;101215.53;5026226;28;20025;-74
2022/07/23 07:12:08;;;;;;;8.52;1.80;;;;;;;14.77;100.00;101208.22;5027448;28;20491;-74
2022/07/23 07:14:33;;;;;;;3.85;1.15;;;;;;;14.94;100.00;101217.00;5027540;28;20021;-74
2022/07/23 07:16:59;;;;;;;2.60;1.10;;;;;;;15.15;100.00;101221.69;5027720;28;20414;-74
2022/07/23 07:19:24;;;;;;;4.50;1.30;;;;;;;15.05;100.00;101207.63;5009739;28;20075;-74
2022/07/23 07:21:49;;;;;;;4.20;1.00;;;;;;;15.19;100.00;101201.50;5027406;28;20395;-74
2022/07/23 07:24:15;;;;;;;3.87;1.30;;;;;;;15.28;100.00;101196.03;5027331;28;20030;-74
2022/07/23 07:26:40;;;;;;;4.03;1.60;;;;;;;15.20;100.00;101189.72;5027627;28;20478;-74
2022/07/23 07:29:06;;;;;;;6.73;1.37;;;;;;;15.32;100.00;101178.50;5025519;28;20557;-74
2022/07/23 07:31:31;;;;;;;3.85;1.27;;;;;;;15.77;100.00;101174.84;5027115;28;20030;-74
2022/07/23 07:33:58;;;;;;;4.97;1.08;;;;;;;15.98;100.00;101165.19;5026817;28;20026;-74
2022/07/23 07:36:23;;;;;;;;;;;;;;;16.35;100.00;101139.91;5026164;28;20072;-74
2022/07/23 07:38:49;;;;;;;;;;;;;;;16.66;100.00;101098.34;5009809;28;19967;-74
2022/07/23 07:41:14;;;;;;;5.53;1.10;;;;;;;16.96;100.00;101036.19;5025591;28;20358;-74
2022/07/23 07:43:39;;;;;;;3.83;1.17;;;;;;;16.67;100.00;100986.81;5025415;28;20029;-74
2022/07/23 07:46:09;;;;;;;1.87;1.10;;;;;;;16.95;100.00;101007.53;5025631;28;20052;-75
2022/07/23 07:48:35;;;;;;;4.72;1.38;;;;;;;17.08;100.00;101011.13;5026667;28;20438;-74
2022/07/23 07:51:01;;;;;;;4.93;1.23;;;;;;;17.52;100.00;100901.91;5026905;28;20572;-74
2022/07/23 07:53:26;;;;;;;2.57;1.17;;;;;;;17.22;100.00;100887.13;5025214;28;20053;-74
2022/07/23 07:55:51;;;;;;;2.87;0.93;;;;;;;17.17;100.00;100935.44;5026537;28;20108;-74
2022/07/23 07:58:17;;;;;;;6.27;1.23;;;;;;;17.01;100.00;100961.72;5009145;28;20064;-75
2022/07/23 08:00:42;;;;;;;1.67;1.00;;;;;;;16.81;100.00;101015.56;5026852;28;20100;-74
2022/07/23 08:03:08;;;;;;;5.03;1.30;;;;;;;16.58;100.00;101014.94;5026169;28;20033;-75
2022/07/23 08:05:33;;;;;;;9.27;1.57;;;;;;;16.64;100.00;101057.25;5026771;28;20064;-74
2022/07/23 08:07:59;;;;;;;3.37;1.37;;;;;;;16.55;100.00;101088.94;5026685;28;20034;-74
2022/07/23 08:10:26;;;;;;;3.08;1.08;;;;;;;16.58;100.00;101079.63;5026457;28;20037;-74
2022/07/23 08:12:54;;;;;;;2.22;1.05;;;;;;;16.94;100.00;101057.13;5025138;28;20420;-74
2022/07/23 08:15:21;;;;;;;5.78;1.55;;;;;;;17.13;100.00;101007.00;5025274;28;20470;-75
2022/07/23 08:17:47;;;;;;;6.07;1.20;;;;;;;16.92;100.00;100960.22;5024732;28;20547;-75
2022/07/23 08:20:13;;;;;;;;;;;;;;;16.72;100.00;100952.00;5026793;28;20033;-74
2022/07/23 08:22:50;;;;;;;3.03;1.30;;;;;;;16.84;100.00;100993.56;5026240;28;19917;-75
2022/07/23 08:25:21;;;;;;;2.65;1.23;;;;;;;16.86;100.00;100964.56;5024910;28;20033;-75
2022/07/23 08:27:47;;;;;;;3.00;1.38;;;;;;;16.91;100.00;100920.81;5026787;28;20025;-75
2022/07/23 08:30:12;;;;;;;2.40;1.55;;;;;;;16.87;100.00;100962.69;5024644;28;20130;-75
2022/07/23 08:32:55;;;;;;;2.78;1.15;;;;;;;16.85;100.00;100968.25;5025859;28;20387;-74
2022/07/23 08:35:35;;;;;;;2.65;1.48;;;;;;;16.54;100.00;100947.09;5007405;28;20132;-76
2022/07/23 08:38:04;;;;;;;6.68;2.03;;;;;;;16.78;100.00;101040.16;5017780;28;20061;-75
2022/07/23 08:40:33;;;;;;;3.38;1.10;;;;;;;16.82;100.00;101037.94;5036955;28;20040;-75
2022/07/23 08:42:59;;;;;;;2.20;1.10;;;;;;;17.04;100.00;101036.88;5025637;28;20382;-75
2022/07/23 08:45:25;;;;;;;;;;;;;;;16.69;100.00;100952.38;5024788;28;20037;-75
2022/07/23 08:47:52;;;;;;;;;;;;;;;16.35;100.00;100966.66;5024861;28;20200;-75
2022/07/23 08:50:18;;;;;;;4.78;1.02;;;;;;;16.36;100.00;100996.06;5019122;28;19920;-75
2022/07/23 08:52:44;;;;;;;6.93;2.45;;;;;;;16.89;100.00;101036.13;5023724;28;20037;-73
2022/07/23 08:55:09;;;;;;;3.60;1.30;;;;;;;17.51;100.00;100973.16;5023670;28;20025;-73
2022/07/23 08:57:35;;;;;;;6.37;1.80;;;;;;;17.54;100.00;100922.50;5025310;28;20441;-74
2022/07/23 09:00:01;;;;;;;6.93;1.95;;;;;;;17.97;100.00;100987.00;5021231;23;20066;-73
2022/07/23 09:02:26;;;;;;;3.00;1.20;;;;;;;18.10;100.00;100823.03;5060950;23;20861;-74
2022/07/23 09:04:52;;;;;;;3.30;1.00;;;;;;;18.53;100.00;100862.25;5018488;28;20041;-75
2022/07/23 09:07:18;;;;;;;5.43;1.07;;;;;;;18.17;100.00;100900.53;5024039;28;20116;-74
2022/07/23 09:09:43;;;;;;;3.40;1.25;;;;;;;18.06;100.00;100924.47;5024646;28;20029;-74
2022/07/23 09:12:10;;;;;;;3.40;1.10;;;;;;;17.39;100.00;100803.91;5024477;28;20041;-75
2022/07/23 09:14:43;;;;;;;2.35;1.17;;;;;;;17.20;100.00;100863.03;5007491;28;20028;-76
2022/07/23 09:17:13;;;;;;;4.85;1.13;;;;;;;17.40;100.00;100929.72;5008118;28;20465;-75
2022/07/23 09:19:40;;;;;;;3.90;1.25;;;;;;;17.53;100.00;100954.03;5024101;28;20041;-75
2022/07/23 09:22:26;;;;;;;7.68;2.08;;;;;;;17.46;100.00;100929.72;5007799;28;20540;-75
2022/07/23 09:25:13;;;;;;;3.00;1.20;;;;;;;17.77;100.00;100947.25;5025368;28;20029;-73
2022/07/23 09:27:57;;;;;;;3.95;0.95;;;;;;;18.22;100.00;100852.13;5001104;28;20037;-76
2022/07/23 09:30:27;;;;;;;3.15;1.27;;;;;;;17.90;100.00;100728.53;5007780;28;20048;-76
2022/07/23 09:33:07;;;;;;;5.30;1.23;;;;;;;18.07;100.00;100852.34;5024113;28;20045;-75
2022/07/23 09:35:48;;;;;;;6.10;1.00;;;;;;;17.85;100.00;100816.63;5022613;28;20032;-76
2022/07/23 09:38:15;;;;;;;1.83;0.95;;;;;;;17.67;100.00;100807.25;5025842;28;20025;-76
2022/07/23 09:40:40;;;;;;;2.30;0.88;;;;;;;17.65;100.00;100874.13;5023870;28;20603;-75
2022/07/23 09:43:06;;;;;;;2.70;0.80;;;;;;;17.70;100.00;100870.81;5025703;28;20037;-76
2022/07/23 09:45:31;;;;;;;1.33;1.10;;;;;;;17.85;100.00;100930.06;5025414;28;20033;-75
2022/07/23 09:48:17;;;;;;;1.05;0.68;;;;;;;17.87;100.00;100911.78;5024259;28;20045;-75
2022/07/23 09:50:43;;;;;;;2.90;1.15;;;;;;;17.68;100.00;100848.59;5023938;28;20116;-75
2022/07/23 09:53:23;;;;;;;3.45;0.70;;;;;;;17.73;100.00;100890.13;5027240;28;20021;-76
2022/07/23 09:55:48;;;;;;;5.45;1.13;;;;;;;17.58;100.00;100940.75;5030044;28;20079;-76
2022/07/23 09:58:14;;;;;;;5.18;1.05;;;;;;;17.67;100.00;100950.31;5028339;28;20442;-75
2022/07/23 10:00:40;;;;;;;3.90;1.03;;;;;;;17.68;100.00;100925.00;5027506;28;20037;-76
2022/07/23 10:03:06;;;;;;;2.53;1.20;;;;;;;17.85;100.00;100959.75;5026377;28;20275;-76
2022/07/23 10:05:55;;;;;;;1.40;0.93;;;;;;;18.28;100.00;100935.88;5024497;28;20104;-75
2022/07/23 10:08:22;;;;;;;4.40;1.13;;;;;;;18.47;100.00;100882.84;5029403;28;20049;-76
2022/07/23 10:11:06;;;;;;;1.75;1.08;;;;;;;18.37;100.00;100833.78;5028065;28;20032;-76
2022/07/23 10:14:07;;;;;;;2.10;0.90;;;;;;;18.22;100.00;100844.03;5024342;28;20048;-75
2022/07/23 10:16:53;;;;;;;5.28;1.02;;;;;;;18.63;100.00;100902.34;5023382;28;20406;-76
2022/07/23 10:19:19;;;;;;;2.47;0.75;;;;;;;18.79;100.00;100858.66;5028175;28;20038;-76
2022/07/23 10:21:52;;;;;;;2.35;0.75;;;;;;;19.43;100.00;100921.81;5028275;28;20536;-76
2022/07/23 10:25:08;;;;;;;2.72;0.70;;;;;;;20.93;94.92;100807.06;5029612;28;20038;-76
2022/07/23 10:28:11;;;;;;;2.72;0.80;;;;;;;20.47;91.24;100691.84;5039760;28;20070;-75
2022/07/23 10:31:02;;;;;;;4.10;0.80;;;;;;;19.88;90.10;100582.31;5028702;28;20110;-75
2022/07/23 10:33:46;;;;;;;2.10;0.80;;;;;;;18.94;99.50;100625.72;5012688;28;20042;-75
2022/07/23 10:36:19;;;;;;;7.63;1.02;;;;;;;18.02;100.00;100742.22;5029015;28;20025;-75
2022/07/23 10:38:51;;;;;;;7.05;1.40;;;;;;;17.59;100.00;100871.44;5029208;28;20030;-76
2022/07/23 10:41:31;;;;;;;2.50;0.50;;;;;;;17.37;100.00;101038.06;5028588;28;20065;-74
2022/07/23 10:44:14;;;;;;;1.75;0.70;;;;;;;17.27;100.00;101103.19;5023291;28;20041;-74
2022/07/23 10:49:33;;;;;;;3.45;0.88;;;;;;;16.98;100.00;101174.38;5024160;28;20021;-74
2022/07/23 10:52:14;;;;;;;5.55;0.98;;;;;;;16.92;100.00;101169.75;5010705;28;20022;-75
2022/07/23 10:54:45;;;;;;;5.57;0.88;;;;;;;16.84;100.00;101120.31;5042179;28;20029;-75
2022/07/23 10:57:12;;;;;;;2.35;0.60;;;;;;;16.77;100.00;101072.72;5027482;28;20207;-75
2022/07/23 11:00:00;;;;;;;2.33;0.82;;;;;;;17.05;100.00;101145.59;5026706;28;20621;-75
2022/07/23 11:02:28;;;;;;;1.63;1.05;;;;;;;17.32;100.00;101143.06;5023200;28;20053;-76
2022/07/23 11:04:58;;;;;;;3.53;0.73;;;;;;;17.86;100.00;101131.56;5024723;28;20084;-76
2022/07/23 11:07:24;;;;;;;0.95;0.60;;;;;;;17.99;100.00;101083.00;5009655;28;20037;-76
2022/07/23 11:09:49;;;;;;;1.50;0.60;;;;;;;18.66;100.00;101026.31;5023791;28;20030;-75
2022/07/23 11:12:21;;;;;;;1.27;0.57;;;;;;;19.21;100.00;100945.69;5022672;28;20272;-76
2022/07/23 11:15:08;;;;;;;3.00;0.52;;;;;;;20.46;98.79;100768.81;5021539;28;20073;-75
2022/07/23 11:17:38;;;;;;;1.63;0.70;;;;;;;21.38;90.58;100751.47;5016835;28;20033;-76
2022/07/23 11:20:09;;;;;;;1.65;0.70;;;;;;;20.31;90.97;100603.00;5025850;28;20045;-76
2022/07/23 11:22:59;;;;;;;2.85;0.60;;;;;;;20.27;98.64;100810.53;5025027;28;20118;-75
2022/07/23 11:25:24;;;;;;;2.70;0.98;;;;;;;20.35;98.33;100827.34;5025641;28;20053;-75
2022/07/23 11:27:51;;;;;;;3.07;0.70;;;;;;;19.86;100.00;100752.41;5026320;28;20036;-76